sensor_id;sensor_type;location;lat;lon;timestamp;pressure;altitude;pressure_sealevel;temperature;humidity
29467;BME280;60968;37.490;-122.288;2023-04-22T00:01:22;99341.59;;;23.03;39.93
29467;BME280;60968;37.490;-122.288;2023-04-22T00:04:23;99336.72;;;22.95;41.00
29467;BME280;60968;37.490;-122.288;2023-04-22T00:07:24;99346.63;;;22.93;41.85
29467;BME280;60968;37.490;-122.288;2023-04-22T00:10:27;99336.63;;;22.82;42.44
29467;BME280;60968;37.490;-122.288;2023-04-22T00:13:28;99335.25;;;22.60;42.57
29467;BME280;60968;37.490;-122.288;2023-04-22T00:16:29;99341.13;;;22.35;43.37
29467;BME280;60968;37.490;-122.288;2023-04-22T00:19:31;99326.75;;;22.07;44.65
29467;BME280;60968;37.490;-122.288;2023-04-22T00:22:32;99331.38;;;22.04;44.95
29467;BME280;60968;37.490;-122.288;2023-04-22T00:25:33;99335.47;;;21.78;46.51
29467;BME280;60968;37.490;-122.288;2023-04-22T00:28:34;99329.66;;;21.55;47.09
29467;BME280;60968;37.490;-122.288;2023-04-22T00:31:35;99334.16;;;21.53;47.38
29467;BME280;60968;37.490;-122.288;2023-04-22T00:34:36;99335.56;;;21.42;48.32
29467;BME280;60968;37.490;-122.288;2023-04-22T00:37:40;99330.94;;;21.30;48.64
29467;BME280;60968;37.490;-122.288;2023-04-22T00:40:42;99321.06;;;21.16;49.60
29467;BME280;60968;37.490;-122.288;2023-04-22T00:43:44;99308.44;;;21.04;50.58
29467;BME280;60968;37.490;-122.288;2023-04-22T00:46:45;99320.66;;;20.90;50.98
29467;BME280;60968;37.490;-122.288;2023-04-22T00:49:49;99316.50;;;20.67;51.24
29467;BME280;60968;37.490;-122.288;2023-04-22T00:52:51;99311.97;;;20.52;52.13
29467;BME280;60968;37.490;-122.288;2023-04-22T00:55:52;99310.13;;;20.54;52.41
29467;BME280;60968;37.490;-122.288;2023-04-22T00:58:53;99305.34;;;20.43;52.35
29467;BME280;60968;37.490;-122.288;2023-04-22T01:01:56;99305.75;;;20.35;52.62
29467;BME280;60968;37.490;-122.288;2023-04-22T01:04:58;99310.16;;;20.35;52.48
29467;BME280;60968;37.490;-122.288;2023-04-22T01:07:59;99302.31;;;20.33;52.47
29467;BME280;60968;37.490;-122.288;2023-04-22T01:11:02;99313.75;;;20.34;51.84
29467;BME280;60968;37.490;-122.288;2023-04-22T01:14:03;99306.75;;;20.33;51.89
29467;BME280;60968;37.490;-122.288;2023-04-22T01:17:05;99301.38;;;20.34;51.46
29467;BME280;60968;37.490;-122.288;2023-04-22T01:20:07;99300.38;;;20.37;50.82
29467;BME280;60968;37.490;-122.288;2023-04-22T01:23:27;99295.00;;;20.38;50.93
29467;BME280;60968;37.490;-122.288;2023-04-22T01:26:37;99297.66;;;20.38;50.77
29467;BME280;60968;37.490;-122.288;2023-04-22T01:29:38;99291.81;;;20.32;50.50
29467;BME280;60968;37.490;-122.288;2023-04-22T01:32:40;99285.75;;;20.30;50.60
29467;BME280;60968;37.490;-122.288;2023-04-22T01:35:41;99291.88;;;20.30;50.79
29467;BME280;60968;37.490;-122.288;2023-04-22T01:38:43;99291.97;;;20.29;50.66
29467;BME280;60968;37.490;-122.288;2023-04-22T01:41:46;99281.91;;;20.18;50.44
29467;BME280;60968;37.490;-122.288;2023-04-22T01:44:47;99285.22;;;20.04;50.57
29467;BME280;60968;37.490;-122.288;2023-04-22T01:47:48;99283.56;;;19.84;51.06
29467;BME280;60968;37.490;-122.288;2023-04-22T01:50:50;99280.59;;;19.71;51.44
29467;BME280;60968;37.490;-122.288;2023-04-22T01:53:51;99275.13;;;19.57;50.76
29467;BME280;60968;37.490;-122.288;2023-04-22T01:56:53;99271.31;;;19.43;50.96
29467;BME280;60968;37.490;-122.288;2023-04-22T01:59:54;99265.69;;;19.32;51.23
29467;BME280;60968;37.490;-122.288;2023-04-22T02:02:55;99267.75;;;19.25;51.79
29467;BME280;60968;37.490;-122.288;2023-04-22T02:05:56;99267.38;;;19.14;51.10
29467;BME280;60968;37.490;-122.288;2023-04-22T02:08:57;99268.88;;;19.00;51.15
29467;BME280;60968;37.490;-122.288;2023-04-22T02:11:58;99262.06;;;18.74;50.72
29467;BME280;60968;37.490;-122.288;2023-04-22T02:14:59;99259.09;;;18.61;50.62
29467;BME280;60968;37.490;-122.288;2023-04-22T02:17:59;99262.13;;;18.52;51.10
29467;BME280;60968;37.490;-122.288;2023-04-22T02:21:00;99258.31;;;18.39;51.69
29467;BME280;60968;37.490;-122.288;2023-04-22T02:24:01;99262.50;;;18.22;52.10
29467;BME280;60968;37.490;-122.288;2023-04-22T02:27:02;99263.94;;;18.09;52.17
29467;BME280;60968;37.490;-122.288;2023-04-22T02:30:04;99255.63;;;17.97;52.64
29467;BME280;60968;37.490;-122.288;2023-04-22T02:33:05;99265.47;;;17.92;52.53
29467;BME280;60968;37.490;-122.288;2023-04-22T02:36:07;99265.81;;;17.83;52.66
29467;BME280;60968;37.490;-122.288;2023-04-22T02:39:08;99260.03;;;17.73;52.91
29467;BME280;60968;37.490;-122.288;2023-04-22T02:42:09;99253.38;;;17.64;52.91
29467;BME280;60968;37.490;-122.288;2023-04-22T02:45:10;99245.72;;;17.58;52.57
29467;BME280;60968;37.490;-122.288;2023-04-22T02:48:11;99241.28;;;17.59;52.44
29467;BME280;60968;37.490;-122.288;2023-04-22T02:51:12;99239.56;;;17.58;52.05
29467;BME280;60968;37.490;-122.288;2023-04-22T02:54:16;99244.06;;;17.56;51.98
29467;BME280;60968;37.490;-122.288;2023-04-22T02:57:17;99242.38;;;17.53;52.05
29467;BME280;60968;37.490;-122.288;2023-04-22T03:00:18;99249.38;;;17.54;51.40
29467;BME280;60968;37.490;-122.288;2023-04-22T03:03:19;99243.50;;;17.47;52.21
29467;BME280;60968;37.490;-122.288;2023-04-22T03:06:20;99237.72;;;17.38;52.24
29467;BME280;60968;37.490;-122.288;2023-04-22T03:09:20;99228.09;;;17.37;51.23
29467;BME280;60968;37.490;-122.288;2023-04-22T03:12:24;99231.53;;;17.39;51.29
29467;BME280;60968;37.490;-122.288;2023-04-22T03:15:24;99223.63;;;17.39;51.41
29467;BME280;60968;37.490;-122.288;2023-04-22T03:18:26;99218.59;;;17.32;51.97
29467;BME280;60968;37.490;-122.288;2023-04-22T03:21:27;99227.72;;;17.24;52.46
29467;BME280;60968;37.490;-122.288;2023-04-22T03:24:27;99225.13;;;17.22;51.96
29467;BME280;60968;37.490;-122.288;2023-04-22T03:27:28;99222.50;;;17.22;52.11
29467;BME280;60968;37.490;-122.288;2023-04-22T03:30:29;99224.63;;;17.12;52.95
29467;BME280;60968;37.490;-122.288;2023-04-22T03:33:30;99221.47;;;17.03;53.43
29467;BME280;60968;37.490;-122.288;2023-04-22T03:36:31;99226.22;;;16.93;53.91
29467;BME280;60968;37.490;-122.288;2023-04-22T03:39:32;99222.00;;;16.87;54.45
29467;BME280;60968;37.490;-122.288;2023-04-22T03:42:33;99224.06;;;16.79;54.70
29467;BME280;60968;37.490;-122.288;2023-04-22T03:45:34;99226.03;;;16.74;55.18
29467;BME280;60968;37.490;-122.288;2023-04-22T03:48:35;99226.41;;;16.63;56.25
29467;BME280;60968;37.490;-122.288;2023-04-22T03:51:36;99230.31;;;16.51;56.93
29467;BME280;60968;37.490;-122.288;2023-04-22T03:54:37;99233.09;;;16.46;57.35
29467;BME280;60968;37.490;-122.288;2023-04-22T03:57:38;99229.44;;;16.51;56.96
29467;BME280;60968;37.490;-122.288;2023-04-22T04:00:39;99235.25;;;16.60;56.33
29467;BME280;60968;37.490;-122.288;2023-04-22T04:03:41;99234.16;;;16.66;56.35
29467;BME280;60968;37.490;-122.288;2023-04-22T04:06:42;99238.63;;;16.64;56.62
29467;BME280;60968;37.490;-122.288;2023-04-22T04:09:43;99237.03;;;16.60;56.63
29467;BME280;60968;37.490;-122.288;2023-04-22T04:12:45;99232.78;;;16.56;57.24
29467;BME280;60968;37.490;-122.288;2023-04-22T04:15:46;99228.59;;;16.50;57.94
29467;BME280;60968;37.490;-122.288;2023-04-22T04:18:50;99227.84;;;16.46;58.10
29467;BME280;60968;37.490;-122.288;2023-04-22T04:21:51;99240.09;;;16.48;57.97
29467;BME280;60968;37.490;-122.288;2023-04-22T04:24:52;99239.22;;;16.47;58.44
29467;BME280;60968;37.490;-122.288;2023-04-22T04:27:53;99249.03;;;16.42;58.58
29467;BME280;60968;37.490;-122.288;2023-04-22T04:30:59;99256.88;;;16.43;59.17
29467;BME280;60968;37.490;-122.288;2023-04-22T04:34:04;99253.13;;;16.51;59.35
29467;BME280;60968;37.490;-122.288;2023-04-22T04:37:07;99251.84;;;16.37;59.05
29467;BME280;60968;37.490;-122.288;2023-04-22T04:40:09;99250.22;;;16.33;59.59
29467;BME280;60968;37.490;-122.288;2023-04-22T04:43:12;99246.88;;;16.28;59.73
29467;BME280;60968;37.490;-122.288;2023-04-22T04:46:13;99248.84;;;16.21;60.62
29467;BME280;60968;37.490;-122.288;2023-04-22T04:49:14;99242.03;;;16.16;60.82
29467;BME280;60968;37.490;-122.288;2023-04-22T04:52:15;99246.59;;;16.10;60.92
29467;BME280;60968;37.490;-122.288;2023-04-22T04:55:16;99245.94;;;16.04;61.62
29467;BME280;60968;37.490;-122.288;2023-04-22T04:58:17;99241.78;;;15.97;62.30
29467;BME280;60968;37.490;-122.288;2023-04-22T05:01:18;99237.44;;;15.95;63.19
29467;BME280;60968;37.490;-122.288;2023-04-22T05:04:20;99239.34;;;15.90;63.84
29467;BME280;60968;37.490;-122.288;2023-04-22T05:07:21;99241.19;;;15.88;63.83
29467;BME280;60968;37.490;-122.288;2023-04-22T05:10:22;99241.19;;;15.88;64.25
29467;BME280;60968;37.490;-122.288;2023-04-22T05:13:23;99247.22;;;15.90;64.49
29467;BME280;60968;37.490;-122.288;2023-04-22T05:16:24;99246.63;;;15.82;65.27
29467;BME280;60968;37.490;-122.288;2023-04-22T05:19:25;99246.06;;;15.71;65.88
29467;BME280;60968;37.490;-122.288;2023-04-22T05:22:26;99253.38;;;15.61;66.56
29467;BME280;60968;37.490;-122.288;2023-04-22T05:25:27;99244.97;;;15.50;67.30
29467;BME280;60968;37.490;-122.288;2023-04-22T05:28:29;99243.38;;;15.44;67.60
29467;BME280;60968;37.490;-122.288;2023-04-22T05:31:29;99245.25;;;15.40;67.55
29467;BME280;60968;37.490;-122.288;2023-04-22T05:34:31;99240.16;;;15.34;68.24
29467;BME280;60968;37.490;-122.288;2023-04-22T05:37:31;99237.59;;;15.33;68.67
29467;BME280;60968;37.490;-122.288;2023-04-22T05:40:32;99232.44;;;15.30;68.50
29467;BME280;60968;37.490;-122.288;2023-04-22T05:43:33;99238.69;;;15.25;68.80
29467;BME280;60968;37.490;-122.288;2023-04-22T05:46:34;99234.44;;;15.21;69.50
29467;BME280;60968;37.490;-122.288;2023-04-22T05:49:37;99236.25;;;15.19;69.80
29467;BME280;60968;37.490;-122.288;2023-04-22T05:52:38;99223.22;;;15.16;69.53
29467;BME280;60968;37.490;-122.288;2023-04-22T05:55:39;99224.03;;;15.18;69.71
29467;BME280;60968;37.490;-122.288;2023-04-22T05:58:42;99229.19;;;15.21;69.32
29467;BME280;60968;37.490;-122.288;2023-04-22T06:01:43;99225.75;;;15.19;69.39
29467;BME280;60968;37.490;-122.288;2023-04-22T06:04:44;99222.44;;;15.13;70.28
29467;BME280;60968;37.490;-122.288;2023-04-22T06:07:45;99217.34;;;15.08;70.45
29467;BME280;60968;37.490;-122.288;2023-04-22T06:10:46;99214.81;;;15.03;71.18
29467;BME280;60968;37.490;-122.288;2023-04-22T06:13:47;99208.63;;;15.06;70.43
29467;BME280;60968;37.490;-122.288;2023-04-22T06:16:48;99206.78;;;15.09;70.44
29467;BME280;60968;37.490;-122.288;2023-04-22T06:19:49;99209.38;;;15.11;70.46
29467;BME280;60968;37.490;-122.288;2023-04-22T06:22:51;99206.91;;;15.06;70.92
29467;BME280;60968;37.490;-122.288;2023-04-22T06:25:52;99204.13;;;15.11;70.85
29467;BME280;60968;37.490;-122.288;2023-04-22T06:28:53;99206.91;;;15.06;71.47
29467;BME280;60968;37.490;-122.288;2023-04-22T06:31:55;99207.88;;;15.02;72.27
29467;BME280;60968;37.490;-122.288;2023-04-22T06:34:59;99201.75;;;15.02;71.37
29467;BME280;60968;37.490;-122.288;2023-04-22T06:38:09;99205.38;;;14.98;71.88
29467;BME280;60968;37.490;-122.288;2023-04-22T06:41:10;99204.56;;;14.96;72.14
29467;BME280;60968;37.490;-122.288;2023-04-22T06:44:11;99203.88;;;14.89;73.35
29467;BME280;60968;37.490;-122.288;2023-04-22T06:47:12;99208.47;;;14.81;73.92
29467;BME280;60968;37.490;-122.288;2023-04-22T06:50:13;99196.34;;;14.77;74.35
29467;BME280;60968;37.490;-122.288;2023-04-22T06:53:14;99194.75;;;14.71;75.61
29467;BME280;60968;37.490;-122.288;2023-04-22T06:56:16;99187.13;;;14.63;75.18
29467;BME280;60968;37.490;-122.288;2023-04-22T06:59:17;99185.47;;;14.59;76.26
29467;BME280;60968;37.490;-122.288;2023-04-22T07:02:19;99189.84;;;14.58;75.99
29467;BME280;60968;37.490;-122.288;2023-04-22T07:05:20;99180.16;;;14.61;75.92
29467;BME280;60968;37.490;-122.288;2023-04-22T07:08:21;99189.72;;;14.65;74.54
29467;BME280;60968;37.490;-122.288;2023-04-22T07:11:22;99188.78;;;14.67;74.58
29467;BME280;60968;37.490;-122.288;2023-04-22T07:14:24;99183.63;;;14.64;74.37
29467;BME280;60968;37.490;-122.288;2023-04-22T07:17:25;99190.72;;;14.59;74.84
29467;BME280;60968;37.490;-122.288;2023-04-22T07:20:27;99182.94;;;14.56;74.68
29467;BME280;60968;37.490;-122.288;2023-04-22T07:23:28;99175.25;;;14.48;75.29
29467;BME280;60968;37.490;-122.288;2023-04-22T07:26:29;99180.69;;;14.42;75.99
29467;BME280;60968;37.490;-122.288;2023-04-22T07:29:31;99174.66;;;14.38;76.13
29467;BME280;60968;37.490;-122.288;2023-04-22T07:32:32;99168.75;;;14.32;77.89
29467;BME280;60968;37.490;-122.288;2023-04-22T07:35:34;99165.38;;;14.27;77.34
29467;BME280;60968;37.490;-122.288;2023-04-22T07:38:36;99163.66;;;14.26;77.40
29467;BME280;60968;37.490;-122.288;2023-04-22T07:41:36;99166.91;;;14.34;77.32
29467;BME280;60968;37.490;-122.288;2023-04-22T07:44:39;99166.75;;;14.40;76.14
29467;BME280;60968;37.490;-122.288;2023-04-22T07:47:40;99168.38;;;14.44;76.34
29467;BME280;60968;37.490;-122.288;2023-04-22T07:50:42;99169.16;;;14.48;75.47
29467;BME280;60968;37.490;-122.288;2023-04-22T07:53:43;99164.16;;;14.38;76.95
29467;BME280;60968;37.490;-122.288;2023-04-22T07:56:44;99153.06;;;14.29;77.40
29467;BME280;60968;37.490;-122.288;2023-04-22T07:59:45;99162.66;;;14.30;77.38
29467;BME280;60968;37.490;-122.288;2023-04-22T08:02:47;99159.19;;;14.29;77.01
29467;BME280;60968;37.490;-122.288;2023-04-22T08:05:48;99151.28;;;14.31;76.65
29467;BME280;60968;37.490;-122.288;2023-04-22T08:08:49;99150.53;;;14.26;77.38
29467;BME280;60968;37.490;-122.288;2023-04-22T08:11:51;99142.03;;;14.17;78.18
29467;BME280;60968;37.490;-122.288;2023-04-22T08:14:53;99142.25;;;14.10;78.80
29467;BME280;60968;37.490;-122.288;2023-04-22T08:17:55;99143.31;;;14.02;79.04
29467;BME280;60968;37.490;-122.288;2023-04-22T08:20:59;99136.53;;;13.94;79.98
29467;BME280;60968;37.490;-122.288;2023-04-22T08:24:02;99134.34;;;13.77;80.85
29467;BME280;60968;37.490;-122.288;2023-04-22T08:27:02;99128.63;;;13.61;82.30
29467;BME280;60968;37.490;-122.288;2023-04-22T08:30:05;99132.31;;;13.53;83.26
29467;BME280;60968;37.490;-122.288;2023-04-22T08:33:06;99115.66;;;13.56;82.62
29467;BME280;60968;37.490;-122.288;2023-04-22T08:36:09;99114.56;;;13.65;82.54
29467;BME280;60968;37.490;-122.288;2023-04-22T08:39:11;99115.06;;;13.79;80.84
29467;BME280;60968;37.490;-122.288;2023-04-22T08:42:13;99107.78;;;13.90;79.44
29467;BME280;60968;37.490;-122.288;2023-04-22T08:45:15;99106.69;;;13.99;79.14
29467;BME280;60968;37.490;-122.288;2023-04-22T08:48:18;99106.72;;;13.98;79.32
29467;BME280;60968;37.490;-122.288;2023-04-22T08:51:21;99105.91;;;13.96;79.07
29467;BME280;60968;37.490;-122.288;2023-04-22T08:54:22;99110.31;;;13.94;78.62
29467;BME280;60968;37.490;-122.288;2023-04-22T08:57:25;99106.84;;;13.93;79.17
29467;BME280;60968;37.490;-122.288;2023-04-22T09:00:26;99107.03;;;13.87;78.23
29467;BME280;60968;37.490;-122.288;2023-04-22T09:03:27;99107.13;;;13.82;79.10
29467;BME280;60968;37.490;-122.288;2023-04-22T09:06:31;99103.88;;;13.74;79.95
29467;BME280;60968;37.490;-122.288;2023-04-22T09:09:32;99099.72;;;13.65;80.38
29467;BME280;60968;37.490;-122.288;2023-04-22T09:12:35;99099.03;;;13.59;80.79
29467;BME280;60968;37.490;-122.288;2023-04-22T09:15:37;99101.84;;;13.49;82.00
29467;BME280;60968;37.490;-122.288;2023-04-22T09:18:42;99095.19;;;13.36;83.27
29467;BME280;60968;37.490;-122.288;2023-04-22T09:21:44;99097.13;;;13.28;84.07
29467;BME280;60968;37.490;-122.288;2023-04-22T09:24:49;99089.44;;;13.20;85.41
29467;BME280;60968;37.490;-122.288;2023-04-22T09:27:53;99077.44;;;13.11;86.00
29467;BME280;60968;37.490;-122.288;2023-04-22T09:30:59;99075.59;;;13.16;84.54
29467;BME280;60968;37.490;-122.288;2023-04-22T09:34:00;99071.84;;;13.27;82.83
29467;BME280;60968;37.490;-122.288;2023-04-22T09:37:01;99068.25;;;13.31;82.77
29467;BME280;60968;37.490;-122.288;2023-04-22T09:40:04;99061.97;;;13.40;81.71
29467;BME280;60968;37.490;-122.288;2023-04-22T09:43:10;99053.91;;;13.49;80.97
29467;BME280;60968;37.490;-122.288;2023-04-22T09:46:11;99059.94;;;13.51;81.32
29467;BME280;60968;37.490;-122.288;2023-04-22T09:49:15;99051.38;;;13.44;81.24
29467;BME280;60968;37.490;-122.288;2023-04-22T09:52:23;99051.41;;;13.43;81.98
29467;BME280;60968;37.490;-122.288;2023-04-22T09:55:27;99041.97;;;13.37;82.05
29467;BME280;60968;37.490;-122.288;2023-04-22T09:58:28;99040.22;;;13.37;82.05
29467;BME280;60968;37.490;-122.288;2023-04-22T10:01:40;99039.38;;;13.35;82.63
29467;BME280;60968;37.490;-122.288;2023-04-22T10:04:41;99028.78;;;13.40;81.74
29467;BME280;60968;37.490;-122.288;2023-04-22T10:07:43;99028.78;;;13.40;81.64
29467;BME280;60968;37.490;-122.288;2023-04-22T10:10:45;99027.38;;;13.27;83.06
29467;BME280;60968;37.490;-122.288;2023-04-22T10:13:46;99020.69;;;13.13;84.27
29467;BME280;60968;37.490;-122.288;2023-04-22T10:16:51;99024.47;;;13.01;85.64
29467;BME280;60968;37.490;-122.288;2023-04-22T10:19:53;99017.75;;;12.91;86.28
29467;BME280;60968;37.490;-122.288;2023-04-22T10:22:55;99029.28;;;12.82;87.20
29467;BME280;60968;37.490;-122.288;2023-04-22T10:25:57;99016.34;;;12.76;87.14
29467;BME280;60968;37.490;-122.288;2023-04-22T10:29:00;99020.69;;;12.77;87.72
29467;BME280;60968;37.490;-122.288;2023-04-22T10:32:23;99017.13;;;12.81;87.82
29467;BME280;60968;37.490;-122.288;2023-04-22T10:35:27;99022.19;;;12.87;87.22
29467;BME280;60968;37.490;-122.288;2023-04-22T10:38:28;99017.75;;;12.91;87.58
29467;BME280;60968;37.490;-122.288;2023-04-22T10:41:34;99023.75;;;12.95;87.15
29467;BME280;60968;37.490;-122.288;2023-04-22T10:44:52;99016.72;;;12.98;86.49
29467;BME280;60968;37.490;-122.288;2023-04-22T10:47:53;99019.25;;;13.01;86.61
29467;BME280;60968;37.490;-122.288;2023-04-22T10:50:55;99007.94;;;13.01;86.59
29467;BME280;60968;37.490;-122.288;2023-04-22T10:53:55;99011.53;;;12.97;87.50
29467;BME280;60968;37.490;-122.288;2023-04-22T10:57:00;99009.13;;;12.87;88.09
29467;BME280;60968;37.490;-122.288;2023-04-22T11:03:29;99001.72;;;12.69;89.77
29467;BME280;60968;37.490;-122.288;2023-04-22T11:06:30;99001.91;;;12.60;90.82
29467;BME280;60968;37.490;-122.288;2023-04-22T11:09:31;99007.25;;;12.55;91.22
29467;BME280;60968;37.490;-122.288;2023-04-22T11:15:37;99006.59;;;12.45;92.28
29467;BME280;60968;37.490;-122.288;2023-04-22T11:18:39;98993.72;;;12.36;93.00
29467;BME280;60968;37.490;-122.288;2023-04-22T11:21:41;98998.19;;;12.31;93.96
29467;BME280;60968;37.490;-122.288;2023-04-22T11:24:53;98996.59;;;12.24;95.79
29467;BME280;60968;37.490;-122.288;2023-04-22T11:27:55;98998.47;;;12.17;95.81
29467;BME280;60968;37.490;-122.288;2023-04-22T11:34:02;98990.53;;;12.22;95.95
29467;BME280;60968;37.490;-122.288;2023-04-22T11:37:03;98993.84;;;12.30;95.71
29467;BME280;60968;37.490;-122.288;2023-04-22T11:40:05;98988.47;;;12.36;94.90
29467;BME280;60968;37.490;-122.288;2023-04-22T11:43:07;98985.81;;;12.39;95.24
29467;BME280;60968;37.490;-122.288;2023-04-22T11:46:08;98988.38;;;12.42;94.61
29467;BME280;60968;37.490;-122.288;2023-04-22T11:49:15;98983.31;;;12.33;95.54
29467;BME280;60968;37.490;-122.288;2023-04-22T11:52:17;98970.41;;;12.27;95.83
29467;BME280;60968;37.490;-122.288;2023-04-22T11:55:29;98967.09;;;12.18;96.23
29467;BME280;60968;37.490;-122.288;2023-04-22T11:58:32;98973.28;;;12.14;97.16
29467;BME280;60968;37.490;-122.288;2023-04-22T12:01:33;98976.91;;;12.07;98.50
29467;BME280;60968;37.490;-122.288;2023-04-22T12:04:40;98971.72;;;12.06;98.71
29467;BME280;60968;37.490;-122.288;2023-04-22T12:07:42;98969.03;;;12.09;98.39
29467;BME280;60968;37.490;-122.288;2023-04-22T12:13:45;98961.00;;;12.20;97.54
29467;BME280;60968;37.490;-122.288;2023-04-22T12:16:46;98959.25;;;12.18;97.99
29467;BME280;60968;37.490;-122.288;2023-04-22T12:19:47;98957.47;;;12.21;97.14
29467;BME280;60968;37.490;-122.288;2023-04-22T12:22:52;98956.59;;;12.22;97.82
29467;BME280;60968;37.490;-122.288;2023-04-22T12:25:52;98948.78;;;12.20;97.92
29467;BME280;60968;37.490;-122.288;2023-04-22T12:28:55;98954.13;;;12.15;98.14
29467;BME280;60968;37.490;-122.288;2023-04-22T12:31:56;98953.19;;;12.18;98.01
29467;BME280;60968;37.490;-122.288;2023-04-22T12:34:57;98942.91;;;12.10;98.99
29467;BME280;60968;37.490;-122.288;2023-04-22T12:37:59;98935.56;;;11.84;100.00
29467;BME280;60968;37.490;-122.288;2023-04-22T12:41:02;98935.84;;;11.72;100.00
29467;BME280;60968;37.490;-122.288;2023-04-22T12:44:06;98932.25;;;11.77;100.00
29467;BME280;60968;37.490;-122.288;2023-04-22T12:47:07;98929.69;;;11.73;100.00
29467;BME280;60968;37.490;-122.288;2023-04-22T12:50:08;98929.03;;;11.63;100.00
29467;BME280;60968;37.490;-122.288;2023-04-22T12:53:11;98924.75;;;11.59;100.00
29467;BME280;60968;37.490;-122.288;2023-04-22T12:56:12;98924.88;;;11.53;100.00
29467;BME280;60968;37.490;-122.288;2023-04-22T12:59:13;98932.00;;;11.44;100.00
29467;BME280;60968;37.490;-122.288;2023-04-22T13:02:14;98931.31;;;11.35;100.00
29467;BME280;60968;37.490;-122.288;2023-04-22T13:05:18;98931.38;;;11.31;100.00
29467;BME280;60968;37.490;-122.288;2023-04-22T13:08:19;98933.22;;;11.25;100.00
29467;BME280;60968;37.490;-122.288;2023-04-22T13:11:21;98928.19;;;11.15;100.00
29467;BME280;60968;37.490;-122.288;2023-04-22T13:14:22;98928.28;;;11.09;100.00
29467;BME280;60968;37.490;-122.288;2023-04-22T13:17:23;98928.38;;;11.05;100.00
29467;BME280;60968;37.490;-122.288;2023-04-22T13:20:24;98932.84;;;10.96;100.00
29467;BME280;60968;37.490;-122.288;2023-04-22T13:23:25;98929.47;;;10.93;100.00
29467;BME280;60968;37.490;-122.288;2023-04-22T13:26:26;98936.50;;;10.86;100.00
29467;BME280;60968;37.490;-122.288;2023-04-22T13:29:28;98943.47;;;10.84;100.00
29467;BME280;60968;37.490;-122.288;2023-04-22T13:32:29;98946.88;;;10.89;100.00
29467;BME280;60968;37.490;-122.288;2023-04-22T13:35:30;98941.53;;;10.98;100.00
29467;BME280;60968;37.490;-122.288;2023-04-22T13:38:31;98944.03;;;11.03;100.00
29467;BME280;60968;37.490;-122.288;2023-04-22T13:41:32;98943.22;;;10.99;100.00
29467;BME280;60968;37.490;-122.288;2023-04-22T13:44:33;98949.31;;;11.00;100.00
29467;BME280;60968;37.490;-122.288;2023-04-22T13:47:33;98949.13;;;11.09;100.00
29467;BME280;60968;37.490;-122.288;2023-04-22T13:50:34;98948.09;;;11.21;100.00
29467;BME280;60968;37.490;-122.288;2023-04-22T13:53:35;98957.50;;;11.30;100.00
29467;BME280;60968;37.490;-122.288;2023-04-22T13:56:36;98953.00;;;11.38;100.00
29467;BME280;60968;37.490;-122.288;2023-04-22T13:59:37;98959.09;;;11.37;100.00
29467;BME280;60968;37.490;-122.288;2023-04-22T14:02:39;98952.94;;;11.41;100.00
29467;BME280;60968;37.490;-122.288;2023-04-22T14:05:40;98959.78;;;11.47;100.00
29467;BME280;60968;37.490;-122.288;2023-04-22T14:08:42;98965.69;;;11.57;100.00
29467;BME280;60968;37.490;-122.288;2023-04-22T14:11:43;98964.66;;;11.65;100.00
29467;BME280;60968;37.490;-122.288;2023-04-22T14:14:43;98969.56;;;11.81;100.00
29467;BME280;60968;37.490;-122.288;2023-04-22T14:17:44;98972.81;;;11.94;100.00
29467;BME280;60968;37.490;-122.288;2023-04-22T14:20:46;98965.75;;;11.99;100.00
29467;BME280;60968;37.490;-122.288;2023-04-22T14:23:46;98964.00;;;12.01;100.00
29467;BME280;60968;37.490;-122.288;2023-04-22T14:26:49;98961.25;;;12.07;100.00
29467;BME280;60968;37.490;-122.288;2023-04-22T14:29:50;98965.47;;;12.13;100.00
29467;BME280;60968;37.490;-122.288;2023-04-22T14:32:51;98955.00;;;12.14;100.00
29467;BME280;60968;37.490;-122.288;2023-04-22T14:35:52;98960.06;;;12.22;100.00
29467;BME280;60968;37.490;-122.288;2023-04-22T14:38:53;98957.09;;;12.39;100.00
29467;BME280;60968;37.490;-122.288;2023-04-22T14:41:54;98954.31;;;12.45;100.00
29467;BME280;60968;37.490;-122.288;2023-04-22T14:44:56;98948.00;;;12.92;100.00
29467;BME280;60968;37.490;-122.288;2023-04-22T14:47:58;98951.69;;;14.45;100.00
29467;BME280;60968;37.490;-122.288;2023-04-22T14:50:59;98944.03;;;17.89;91.06
29467;BME280;60968;37.490;-122.288;2023-04-22T14:54:00;98944.28;;;20.17;73.50
29467;BME280;60968;37.490;-122.288;2023-04-22T14:57:01;98946.88;;;21.86;62.26
29467;BME280;60968;37.490;-122.288;2023-04-22T15:00:05;98944.75;;;23.04;53.92
29467;BME280;60968;37.490;-122.288;2023-04-22T15:03:06;98944.97;;;24.05;48.60
29467;BME280;60968;37.490;-122.288;2023-04-22T15:06:09;98931.19;;;24.86;46.03
29467;BME280;60968;37.490;-122.288;2023-04-22T15:09:10;98941.16;;;26.11;44.69
29467;BME280;60968;37.490;-122.288;2023-04-22T15:12:11;98938.38;;;27.12;42.69
29467;BME280;60968;37.490;-122.288;2023-04-22T15:15:13;98930.25;;;27.55;40.96
29467;BME280;60968;37.490;-122.288;2023-04-22T15:18:14;98935.13;;;27.71;40.18
29467;BME280;60968;37.490;-122.288;2023-04-22T15:21:15;98929.56;;;27.63;39.35
29467;BME280;60968;37.490;-122.288;2023-04-22T15:24:17;98928.47;;;27.66;40.19
29467;BME280;60968;37.490;-122.288;2023-04-22T15:27:19;98931.53;;;27.61;40.24
29467;BME280;60968;37.490;-122.288;2023-04-22T15:30:20;98932.50;;;28.12;37.75
29467;BME280;60968;37.490;-122.288;2023-04-22T15:33:21;98921.41;;;28.36;36.83
29467;BME280;60968;37.490;-122.288;2023-04-22T15:36:22;98923.34;;;28.15;38.31